x

West Sea Otter (46204) Wave Buoy

5:00 - Sun 26th Mar 2017 All times are PDT. -7 hours from GMT.

  • Sig Wave height 8.2ft
  • Peak Period 5s
  • Wind
    36mph, 43mph gusts
  • Sea Temp 46°f
  • Ar Temp 45°f
  • Sea Pressure 1002.5mb
  • West Sea Otter
  • West Sea Otter

More Historic Weather Station data

Upgrade to MSW Pro to gain access to the past 30 days of data for over 8000 Wavebouys and Weather Stations around the globe.

Join Pro

Comparision Forecast

View Surf forecast
   
Dom 03/26 5:00 8ft 5s 36 43 mph 1002.5mb 46f 45f
4:00 9ft 5s 34 40 mph 1004.1mb 46f 45f
3:00 8.5ft 6s 31 40 mph 1005.6mb 45f 45f
2:00 7.5ft 8s 27 36 mph 1007.2mb 46f 45f
1:00 7.5ft 5s 25 34 mph 1008.4mb 46f 44f
12:00 7.5ft 10s 25 29 mph 1009.3mb 46f 44f
Sáb 03/25 11:00 7.5ft 8s 25 34 mph 1010.2mb 46f 44f
10:00 8ft 8s 22 27 mph 1010.8mb 46f 44f
9:00 8ft 9s 25 31 mph 1011.5mb 46f 43f
8:00 8.5ft 9s 25 29 mph 1012mb 46f 44f
7:00 8.5ft 9s 27 29 mph 1012.8mb 46f 44f
6:00 8ft 9s 22 27 mph 1013.5mb 46f 44f
5:00 8ft 9s 18 25 mph 1014.2mb 46f 43f
4:00 8ft 9s 20 27 mph 1014.6mb 46f 42f
3:00 8ft 10s 9 13 mph 1015.2mb 46f 42f
2:00 8ft 10s 20 27 mph 1015.3mb 46f 42f
1:00 9ft 9s 9 13 mph 1015.3mb 46f 43f
12:00 9.5ft 9s 11 16 mph 1015.1mb 46f 41f
11:00 9.5ft 9s 16 18 mph 1014.5mb 46f 44f
10:00 11ft 9s 16 22 mph 1014.3mb 45f 42f
9:00 11.5ft 9s 18 20 mph 1013.6mb 45f 43f
8:00 13ft 10s 18 22 mph 1013.1mb 45f 43f
7:00 13ft 10s 13 18 mph 1012.6mb 45f 43f
6:00 12ft 9s 9 13 mph 1012.6mb 45f 43f
5:00 11ft 10s 13 18 mph 1012.2mb 45f 42f
4:00 12ft 11s 22 27 mph 1011.4mb 45f 42f
3:00 11ft 11s 18 25 mph 1010.6mb 45f 43f
2:00 9ft 11s 20 27 mph 1009.5mb 45f 44f
1:00 9ft 10s 20 25 mph 1008.1mb 45f 44f
12:00 8.5ft 11s 20 27 mph 1006.7mb 45f 44f
Sex 03/24 11:00 8.5ft 15s 22 27 mph 1005.4mb 45f 45f
10:00 7.5ft 11s 22 27 mph 1004.2mb 45f 44f
9:00 8ft 10s 20 25 mph 1003.3mb 45f 45f
8:00 8.5ft 11s 18 25 mph 1002.4mb 45f 45f
7:00 9ft 11s 18 22 mph 1001.3mb 45f 46f
5:00 11ft 10s 20 25 mph 999.3mb 45f 46f
4:00 12ft 10s 25 29 mph 998.2mb 45f 46f
3:00 11ft 11s 31 38 mph 997.1mb 45f 46f
2:00 12ft 11s 29 38 mph 997.1mb 45f 46f
1:00 11.5ft 12s 31 38 mph 997.4mb 45f 46f
12:00 9.5ft 12s 29 36 mph 997.5mb 46f 46f
11:00 10ft 6s 34 43 mph 997.1mb 46f 46f
10:00 10ft 7s 31 40 mph 997.2mb 46f 45f
9:00 9.5ft 7s 31 40 mph 997.2mb 45f 45f
8:00 10ft 7s 34 40 mph 997.4mb 46f 45f
7:00 9.5ft 7s 31 40 mph 997.5mb 46f 46f
6:00 10ft 7s 36 43 mph 997.7mb 46f 46f
5:00 10ft 7s 34 43 mph 998.1mb 45f 46f
4:00 10ft 7s 34 40 mph 998.3mb 45f 46f
3:00 11ft 8s 36 45 mph 998.7mb 46f 46f
2:00 11ft 8s 36 45 mph 999.1mb 46f 46f
1:00 12.5ft 8s 34 43 mph 999.3mb 46f 46f
12:00 13ft 8s 36 45 mph 999.2mb 46f 46f
Qui 03/23 11:00 13.5ft 8s 38 47 mph 999.3mb 46f 46f
10:00 13.5ft 8s 40 51 mph 999.4mb 46f 46f
9:00 12.5ft 8s 40 51 mph 999.5mb 46f 46f
8:00 11ft 7s 40 49 mph 999.8mb 46f 47f
7:00 10ft 7s 36 49 mph 1000.4mb 46f 47f
6:00 10.5ft 7s 36 47 mph 1001.3mb 46f 47f
5:00 9ft 7s 36 45 mph 1002.3mb 46f 47f
4:00 9ft 7s 31 40 mph 1003.7mb 46f 46f
3:00 9.5ft 7s 31 40 mph 1004.7mb 46f 46f
2:00 9ft 7s 31 40 mph 1005.8mb 46f 46f
1:00 9ft 7s 31 40 mph 1006.6mb 46f 45f
12:00 10ft 6s 31 40 mph 1007.2mb 46f 44f
11:00 9ft 6s 34 43 mph 1007.9mb 46f 43f
10:00 9ft 5s 29 36 mph 1008.3mb 45f 44f
9:00 8.5ft 10s 27 34 mph 1009mb 45f 42f
8:00 8.5ft 10s 25 31 mph 1009.7mb 45f 42f
7:00 9ft 8s 25 29 mph 1009.9mb 45f 42f
6:00 8.5ft 8s 22 25 mph 1010.3mb 45f 42f
5:00 8.5ft 7s 22 27 mph 1010.2mb 45f 42f
4:00 9ft 7s 22 29 mph 1010mb 45f 42f
3:00 8.5ft 7s 22 27 mph 1009.7mb 45f 44f
2:00 7.5ft 7s 25 31 mph 1009.1mb 45f 43f
1:00 7.5ft 7s 25 31 mph 1008.5mb 45f 44f
12:00 6ft 12s 22 29 mph 1008.2mb 45f 44f
Qua 03/22 11:00 5.5ft 12s 20 29 mph 1007.7mb 45f 43f
10:00 6ft 14s 16 20 mph 1007.5mb 45f 41f
9:00 5ft 10s 18 22 mph 1006.6mb 45f 43f
8:00 5ft 6s 16
mph
1006.3mb 45f 41f
7:00 5ft 10s 16 22 mph 1006mb 45f 39f
6:00 5ft 13s 18 20 mph 1005.6mb 45f 41f
5:00 5.5ft 10s 18 22 mph 1005.5mb 46f 42f
4:00 5.5ft 14s 18 22 mph 1004.8mb 46f 45f
3:00 5ft 12s 16 20 mph 1004.1mb 46f 45f
2:00 5ft 14s 16 20 mph 1003.4mb 45f 44f